Time;durP1;ratioP1;P1;durP2;ratioP2;P2;SDS_P1;SDS_P2;PMS_P1;PMS_P2;Temp;Humidity;BMP_temperature;BMP_pressure;BME280_temperature;BME280_humidity;BME280_pressure;Samples;Min_cycle;Max_cycle;Signal;HPM_P1;HPM_P2
2023/03/15 00:00:47;;;;;;;3.83;2.07;;;;;;;1.91;100.00;101096.38;5030568;28;20457;-59
2023/03/15 00:03:15;;;;;;;5.70;2.30;;;;;;;1.88;100.00;101094.00;5035401;28;20455;-57
2023/03/15 00:05:45;;;;;;;4.43;2.27;;;;;;;1.89;100.00;101082.59;5026722;28;20048;-57
2023/03/15 00:08:11;;;;;;;3.67;2.10;;;;;;;1.90;100.00;101099.94;5036924;28;20029;-57
2023/03/15 00:10:44;;;;;;;6.63;2.60;;;;;;;1.95;100.00;101092.66;5023179;28;20383;-57
2023/03/15 00:13:10;;;;;;;7.23;2.30;;;;;;;1.95;100.00;101084.81;5022087;28;20033;-58
2023/03/15 00:15:45;;;;;;;4.47;2.27;;;;;;;2.01;100.00;101079.19;5035420;28;20029;-58
2023/03/15 00:18:10;;;;;;;4.13;2.13;;;;;;;2.00;100.00;101080.13;5030185;28;20079;-58
2023/03/15 00:20:36;;;;;;;6.97;2.43;;;;;;;1.95;100.00;101087.41;5023107;28;20037;-57
2023/03/15 00:23:02;;;;;;;6.13;2.50;;;;;;;1.93;100.00;101089.28;5028295;28;20104;-59
2023/03/15 00:25:28;;;;;;;6.83;2.50;;;;;;;1.91;100.00;101088.53;5039505;28;20119;-58
2023/03/15 00:27:53;;;;;;;5.93;2.60;;;;;;;1.93;100.00;101104.16;5028318;28;20034;-57
2023/03/15 00:30:19;;;;;;;4.87;2.40;;;;;;;1.94;100.00;101093.59;5036745;28;20042;-59
2023/03/15 00:32:44;;;;;;;7.17;2.80;;;;;;;1.97;100.00;101090.78;5035814;28;20026;-58
2023/03/15 00:35:11;;;;;;;5.40;2.60;;;;;;;2.00;100.00;101092.34;5026367;28;20041;-58
2023/03/15 00:37:37;;;;;;;6.17;2.67;;;;;;;2.01;100.00;101092.25;5024880;28;20080;-58
2023/03/15 00:40:05;;;;;;;5.30;2.60;;;;;;;2.06;100.00;101094.56;5038105;28;20037;-57
2023/03/15 00:42:30;;;;;;;6.30;2.80;;;;;;;2.07;100.00;101091.00;5027352;28;20029;-58
2023/03/15 00:44:55;;;;;;;6.80;2.47;;;;;;;2.07;100.00;101095.41;5030353;28;20128;-57
2023/03/15 00:47:21;;;;;;;6.77;2.77;;;;;;;2.10;100.00;101093.44;5029032;28;20026;-61
2023/03/15 00:49:46;;;;;;;7.53;2.60;;;;;;;2.17;100.00;101093.03;5021710;28;20057;-59
2023/03/15 00:52:12;;;;;;;5.27;2.63;;;;;;;2.14;100.00;101091.47;5037090;28;20037;-59
2023/03/15 00:54:37;;;;;;;4.97;2.60;;;;;;;2.12;100.00;101088.94;5037043;28;20027;-59
2023/03/15 00:57:02;;;;;;;6.50;2.50;;;;;;;2.13;100.00;101095.00;5033635;28;20057;-58
2023/03/15 00:59:33;;;;;;;6.17;2.50;;;;;;;2.15;100.00;101093.13;5028438;28;20381;-58
2023/03/15 01:02:02;;;;;;;5.47;2.50;;;;;;;2.17;100.00;101091.25;5019384;28;20022;-58
2023/03/15 01:04:28;;;;;;;9.73;2.80;;;;;;;2.18;100.00;101092.94;5024816;28;20022;-57
2023/03/15 01:06:53;;;;;;;5.20;2.53;;;;;;;2.20;100.00;101098.91;5031155;28;20483;-58
2023/03/15 01:09:19;;;;;;;5.20;2.77;;;;;;;2.22;100.00;101094.41;5028590;28;20133;-58
2023/03/15 01:11:44;;;;;;;7.23;2.57;;;;;;;2.24;100.00;101097.78;5023797;28;20052;-58
2023/03/15 01:14:09;;;;;;;6.87;2.80;;;;;;;2.22;100.00;101104.88;5023796;28;20029;-57
2023/03/15 01:16:35;;;;;;;7.63;3.10;;;;;;;2.22;100.00;101094.41;5019659;28;20025;-57
2023/03/15 01:19:00;;;;;;;10.80;3.50;;;;;;;2.24;100.00;101103.00;5022365;28;20079;-58
2023/03/15 01:21:26;;;;;;;10.37;4.87;;;;;;;2.23;100.00;101106.53;5028619;28;20392;-58
2023/03/15 01:23:52;;;;;;;10.63;5.27;;;;;;;2.23;100.00;101111.78;5030451;28;20057;-58
2023/03/15 01:26:19;;;;;;;11.93;6.03;;;;;;;2.21;100.00;101113.66;5032533;28;20064;-57
2023/03/15 01:28:44;;;;;;;12.47;6.63;;;;;;;2.28;100.00;101114.94;5022912;28;20128;-57
2023/03/15 01:31:19;;;;;;;12.73;7.07;;;;;;;2.25;100.00;101114.28;5034261;28;20108;-58
2023/03/15 01:33:44;;;;;;;17.10;7.80;;;;;;;2.28;100.00;101124.56;5035024;28;20393;-57
2023/03/15 01:36:11;;;;;;;15.77;8.83;;;;;;;2.26;100.00;101126.44;5036757;28;20094;-57
2023/03/15 01:38:36;;;;;;;14.60;9.20;;;;;;;2.31;100.00;101123.53;5031297;28;20156;-58
2023/03/15 01:41:02;;;;;;;14.80;9.87;;;;;;;2.23;100.00;101126.66;5025507;28;20108;-58
2023/03/15 01:43:30;;;;;;;18.10;10.60;;;;;;;2.21;100.00;101128.53;5034842;28;20037;-57
2023/03/15 01:46:16;;;;;;;19.03;11.37;;;;;;;2.23;100.00;101134.50;5032900;28;20032;-58
2023/03/15 01:48:55;;;;;;;17.10;11.27;;;;;;;2.13;100.00;101131.66;5026504;28;20385;-57
2023/03/15 01:51:31;;;;;;;19.17;11.80;;;;;;;2.32;100.00;101130.44;5014876;28;20041;-57
2023/03/15 01:54:03;;;;;;;16.50;11.43;;;;;;;2.16;100.00;101126.19;5026697;28;20091;-57
2023/03/15 01:56:30;;;;;;;16.87;12.13;;;;;;;2.14;100.00;101128.91;5034905;28;20082;-57
2023/03/15 01:58:59;;;;;;;17.40;12.63;;;;;;;2.08;100.00;101133.72;5033743;28;20808;-58
2023/03/15 02:01:24;;;;;;;19.63;13.03;;;;;;;2.10;100.00;101139.69;5025060;28;20061;-58
2023/03/15 02:03:57;;;;;;;19.93;12.47;;;;;;;2.12;100.00;101129.97;5028028;28;20380;-57
2023/03/15 02:06:23;;;;;;;18.65;13.57;;;;;;;2.17;100.00;101156.66;5028638;28;20216;-59
2023/03/15 02:08:53;;;;;;;20.90;13.90;;;;;;;2.11;100.00;101154.44;5027721;28;20037;-58
2023/03/15 02:11:22;;;;;;;20.10;13.73;;;;;;;2.09;100.00;101157.16;5026224;28;20040;-58
2023/03/15 02:13:48;;;;;;;22.17;15.03;;;;;;;2.04;100.00;101159.25;5028623;28;20029;-58
2023/03/15 02:16:15;;;;;;;21.10;14.73;;;;;;;2.09;100.00;101164.16;5025933;28;20057;-59
2023/03/15 02:18:40;;;;;;;21.27;15.13;;;;;;;2.06;100.00;101161.75;5015951;28;20076;-58
2023/03/15 02:21:25;;;;;;;21.30;13.77;;;;;;;2.10;100.00;101163.22;5021087;28;20054;-58
2023/03/15 02:24:27;;;;;;;21.77;14.57;;;;;;;2.14;100.00;101170.78;5020128;28;20029;-58
2023/03/15 02:26:55;;;;;;;21.10;15.30;;;;;;;1.97;100.00;101164.00;5024658;28;20060;-57
2023/03/15 02:29:23;;;;;;;22.63;15.83;;;;;;;2.06;100.00;101172.22;5029513;28;20047;-57
2023/03/15 02:31:48;;;;;;;24.63;17.93;;;;;;;2.03;100.00;101172.41;5023223;28;20061;-57
2023/03/15 02:34:14;;;;;;;22.53;16.07;;;;;;;2.00;100.00;101169.06;5023938;28;20029;-58
2023/03/15 02:36:39;;;;;;;22.50;16.87;;;;;;;1.97;100.00;101171.03;5019655;28;20462;-60
2023/03/15 02:39:16;;;;;;;23.83;17.07;;;;;;;2.05;100.00;101173.13;5027804;28;20386;-57
2023/03/15 02:41:54;;;;;;;21.37;15.57;;;;;;;2.08;100.00;101170.34;5021757;28;20033;-57
2023/03/15 02:44:22;;;;;;;20.33;13.37;;;;;;;2.10;100.00;101178.91;5017724;28;20045;-57
2023/03/15 02:46:51;;;;;;;17.13;11.23;;;;;;;2.04;100.00;101174.09;5021681;28;20539;-58
2023/03/15 02:49:17;;;;;;;20.50;11.90;;;;;;;2.06;100.00;101177.47;5021769;28;20041;-58
2023/03/15 02:51:43;;;;;;;17.97;10.87;;;;;;;2.07;100.00;101189.59;5026034;28;20184;-57
2023/03/15 02:54:08;;;;;;;17.23;11.00;;;;;;;2.06;100.00;101185.31;5025778;28;20022;-58
2023/03/15 02:56:33;;;;;;;17.23;10.97;;;;;;;1.99;100.00;101182.22;5023487;28;20462;-59
2023/03/15 02:58:59;;;;;;;18.80;11.97;;;;;;;1.97;100.00;101187.53;5024150;28;20112;-57
2023/03/15 03:01:25;;;;;;;19.43;12.63;;;;;;;1.96;100.00;101191.09;5025267;28;20026;-58
2023/03/15 03:03:50;;;;;;;19.87;13.70;;;;;;;1.95;100.00;101193.81;5033969;28;20044;-57
2023/03/15 03:06:16;;;;;;;20.63;13.13;;;;;;;1.89;100.00;101202.91;5032043;28;20030;-58
2023/03/15 03:08:45;;;;;;;18.83;13.50;;;;;;;1.86;100.00;101203.94;5027655;28;20033;-57
2023/03/15 03:11:13;;;;;;;17.23;12.70;;;;;;;1.83;100.00;101218.97;5021883;28;21592;-59
2023/03/15 03:13:38;;;;;;;18.30;12.70;;;;;;;1.81;100.00;101221.66;5024408;28;20029;-57
2023/03/15 03:16:04;;;;;;;17.87;12.13;;;;;;;1.81;100.00;101228.66;5029139;28;20037;-57
2023/03/15 03:18:34;;;;;;;17.27;12.03;;;;;;;1.73;100.00;101235.22;5029761;28;20410;-57
2023/03/15 03:21:01;;;;;;;18.63;12.10;;;;;;;1.69;100.00;101233.75;5021904;28;20033;-58
2023/03/15 03:23:27;;;;;;;16.43;11.73;;;;;;;1.72;100.00;101238.75;5024430;28;20033;-59
2023/03/15 03:25:53;;;;;;;18.27;12.30;;;;;;;1.64;100.00;101246.25;5021298;28;20049;-57
2023/03/15 03:28:20;;;;;;;15.47;11.10;;;;;;;1.62;100.00;101253.31;5028021;28;20022;-58
2023/03/15 03:30:46;;;;;;;17.80;11.60;;;;;;;1.61;100.00;101249.88;5024925;28;20034;-57
2023/03/15 03:33:11;;;;;;;15.70;11.23;;;;;;;1.57;100.00;101252.75;5029783;28;20036;-57
2023/03/15 03:35:36;;;;;;;16.37;11.30;;;;;;;1.56;100.00;101243.22;5041580;28;20552;-58
2023/03/15 03:38:01;;;;;;;15.43;11.40;;;;;;;1.54;100.00;101245.13;5034937;28;20489;-59
2023/03/15 03:40:27;;;;;;;17.97;11.20;;;;;;;1.52;100.00;101257.44;5027904;28;20029;-57
2023/03/15 03:42:52;;;;;;;16.93;11.80;;;;;;;1.48;100.00;101261.97;5027371;28;20074;-56
2023/03/15 03:45:17;;;;;;;16.77;10.97;;;;;;;1.42;100.00;101271.06;5024533;28;20025;-58
2023/03/15 03:47:43;;;;;;;16.97;12.27;;;;;;;1.39;100.00;101279.09;5038202;28;20454;-58
2023/03/15 03:50:09;;;;;;;17.17;12.13;;;;;;;1.33;100.00;101282.06;5042325;28;20132;-59
2023/03/15 03:52:35;;;;;;;17.43;12.20;;;;;;;1.34;100.00;101276.72;5022774;28;20489;-58
2023/03/15 03:55:00;;;;;;;17.10;12.30;;;;;;;1.35;100.00;101277.56;5029765;28;20052;-58
2023/03/15 03:57:25;;;;;;;19.57;13.13;;;;;;;1.30;100.00;101275.25;5024988;28;20453;-59
2023/03/15 03:59:51;;;;;;;18.40;13.00;;;;;;;1.31;100.00;101281.28;5032936;28;20083;-58
2023/03/15 04:02:16;;;;;;;19.57;13.27;;;;;;;1.30;100.00;101284.84;5018229;28;20038;-58
2023/03/15 04:04:41;;;;;;;19.13;13.00;;;;;;;1.29;100.00;101291.00;5029789;28;20573;-58
2023/03/15 04:07:07;;;;;;;19.67;13.10;;;;;;;1.26;100.00;101293.78;5027982;28;20091;-59
2023/03/15 04:09:36;;;;;;;19.60;13.70;;;;;;;1.23;100.00;101299.19;5023789;28;20469;-57
2023/03/15 04:12:02;;;;;;;18.37;12.97;;;;;;;1.24;100.00;101299.13;5021061;28;20454;-58
2023/03/15 04:14:27;;;;;;;17.93;13.00;;;;;;;1.22;100.00;101300.13;5021214;28;20060;-61
2023/03/15 04:16:53;;;;;;;17.40;12.87;;;;;;;1.18;100.00;101313.34;5025978;28;20468;-57
2023/03/15 04:19:19;;;;;;;18.90;12.97;;;;;;;1.12;100.00;101311.09;5045641;28;20037;-56
2023/03/15 04:21:46;;;;;;;17.30;12.30;;;;;;;1.15;100.00;101320.53;5026112;28;20026;-57
2023/03/15 04:24:11;;;;;;;18.20;12.57;;;;;;;1.14;100.00;101327.50;5027990;28;20378;-57
2023/03/15 04:26:37;;;;;;;18.73;12.57;;;;;;;1.11;100.00;101327.72;5040109;28;20045;-58
2023/03/15 04:29:03;;;;;;;18.23;12.40;;;;;;;1.10;100.00;101331.25;5031337;28;20033;-58
2023/03/15 04:31:28;;;;;;;17.47;11.97;;;;;;;1.03;100.00;101329.94;5029894;28;20040;-58
2023/03/15 04:33:54;;;;;;;18.33;12.10;;;;;;;1.05;100.00;101338.50;5028795;28;20033;-58
2023/03/15 04:36:20;;;;;;;17.70;11.73;;;;;;;1.01;100.00;101336.97;5032780;28;20377;-57
2023/03/15 04:38:46;;;;;;;18.97;12.03;;;;;;;0.97;100.00;101340.69;5029734;28;20029;-57
2023/03/15 04:41:15;;;;;;;17.73;12.03;;;;;;;0.94;100.00;101342.56;5032538;28;20040;-58
2023/03/15 04:43:41;;;;;;;18.37;12.17;;;;;;;0.91;100.00;101345.34;5013573;28;20081;-58
2023/03/15 04:46:07;;;;;;;19.13;12.57;;;;;;;0.89;100.00;101355.03;5021999;28;20477;-60
2023/03/15 04:48:33;;;;;;;18.33;12.33;;;;;;;0.85;100.00;101358.75;5032145;28;20037;-57
2023/03/15 04:50:58;;;;;;;18.13;12.03;;;;;;;0.82;100.00;101356.31;5029927;28;20056;-57
2023/03/15 04:53:23;;;;;;;17.37;11.97;;;;;;;0.82;100.00;101358.06;5030151;28;20040;-57
2023/03/15 04:55:49;;;;;;;18.80;12.30;;;;;;;0.78;100.00;101360.84;5030597;28;20068;-58
2023/03/15 04:58:15;;;;;;;17.50;11.00;;;;;;;0.77;100.00;101360.94;5023656;28;20026;-57
2023/03/15 05:00:40;;;;;;;17.37;11.33;;;;;;;0.74;100.00;101366.34;5027698;28;20025;-59
2023/03/15 05:03:05;;;;;;;18.00;11.20;;;;;;;0.70;100.00;101364.81;5017337;28;20037;-57
2023/03/15 05:05:32;;;;;;;16.73;11.40;;;;;;;0.66;100.00;101365.00;5021444;28;20033;-59
2023/03/15 05:07:58;;;;;;;17.40;11.47;;;;;;;0.65;100.00;101359.84;5031039;28;20365;-57
2023/03/15 05:10:24;;;;;;;15.90;10.87;;;;;;;0.64;100.00;101366.81;5028027;28;20040;-58
2023/03/15 05:12:50;;;;;;;17.13;11.70;;;;;;;0.61;100.00;101376.59;5021285;28;20021;-57
2023/03/15 05:15:15;;;;;;;17.30;11.43;;;;;;;0.59;100.00;101374.06;5029387;28;21859;-58
2023/03/15 05:17:41;;;;;;;17.60;11.43;;;;;;;0.55;100.00;101377.78;5018387;28;20046;-57
2023/03/15 05:20:11;;;;;;;18.03;11.70;;;;;;;0.52;100.00;101372.72;5021041;28;20030;-60
2023/03/15 05:22:37;;;;;;;17.40;11.37;;;;;;;0.50;100.00;101379.78;5018197;28;20022;-58
2023/03/15 05:25:03;;;;;;;18.27;11.70;;;;;;;0.51;100.00;101386.69;5022860;28;20033;-58
2023/03/15 05:27:28;;;;;;;18.87;12.33;;;;;;;0.51;100.00;101384.09;5018961;28;20064;-56
2023/03/15 05:29:54;;;;;;;20.47;12.13;;;;;;;0.53;100.00;101387.44;5019075;28;20496;-58
2023/03/15 05:32:25;;;;;;;17.50;11.50;;;;;;;0.52;100.00;101393.59;5018364;28;20048;-58
2023/03/15 05:34:54;;;;;;;19.43;11.77;;;;;;;0.55;100.00;101393.44;5023031;28;20067;-58
2023/03/15 05:37:21;;;;;;;18.67;11.70;;;;;;;0.57;100.00;101396.81;5020632;28;20420;-58
2023/03/15 05:39:47;;;;;;;21.43;11.73;;;;;;;0.58;100.00;101401.09;5021670;28;20144;-58
2023/03/15 05:42:12;;;;;;;19.80;12.07;;;;;;;0.58;100.00;101403.69;5018980;28;20112;-59
2023/03/15 05:44:37;;;;;;;20.20;12.27;;;;;;;0.60;100.00;101407.06;5018881;28;20033;-61
2023/03/15 05:47:03;;;;;;;19.57;11.97;;;;;;;0.61;100.00;101402.69;5015265;28;20037;-57
2023/03/15 05:49:28;;;;;;;18.60;11.43;;;;;;;0.61;100.00;101411.38;5016114;28;20468;-59
2023/03/15 05:51:54;;;;;;;18.47;11.53;;;;;;;0.62;100.00;101415.66;5020442;28;20461;-57
2023/03/15 05:54:19;;;;;;;17.53;11.27;;;;;;;0.62;100.00;101413.06;5019209;28;20392;-58
2023/03/15 05:56:44;;;;;;;18.07;11.40;;;;;;;0.62;100.00;101420.88;5020678;28;20039;-58
2023/03/15 05:59:10;;;;;;;17.20;11.50;;;;;;;0.63;100.00;101414.75;5018351;28;20037;-57
2023/03/15 06:01:35;;;;;;;17.77;11.20;;;;;;;0.58;100.00;101419.34;5017517;28;20084;-57
2023/03/15 06:04:00;;;;;;;18.50;11.80;;;;;;;0.61;100.00;101429.66;5021770;28;20814;-57
2023/03/15 06:06:26;;;;;;;17.13;11.67;;;;;;;0.61;100.00;101434.88;5020424;28;20033;-58
2023/03/15 06:08:51;;;;;;;20.20;12.70;;;;;;;0.62;100.00;101439.16;5031536;28;20072;-57
2023/03/15 06:11:16;;;;;;;20.10;11.93;;;;;;;0.65;100.00;101446.81;5018709;28;20100;-57
2023/03/15 06:13:41;;;;;;;18.70;11.63;;;;;;;0.66;100.00;101448.53;5015667;28;20034;-56
2023/03/15 06:16:07;;;;;;;17.47;11.63;;;;;;;0.64;100.00;101444.31;5014658;28;20072;-58
2023/03/15 06:18:32;;;;;;;19.60;12.17;;;;;;;0.67;100.00;101444.13;5011909;28;20374;-56
2023/03/15 06:20:57;;;;;;;19.90;12.27;;;;;;;0.69;100.00;101451.88;5013488;28;20120;-57
2023/03/15 06:23:22;;;;;;;19.80;12.40;;;;;;;0.73;100.00;101466.47;5014056;28;20033;-57
2023/03/15 06:25:48;;;;;;;17.70;11.77;;;;;;;0.73;100.00;101461.25;5021916;28;20061;-58
2023/03/15 06:28:13;;;;;;;20.30;13.00;;;;;;;0.76;100.00;101476.75;5018965;28;20464;-58
2023/03/15 06:30:39;;;;;;;18.70;11.87;;;;;;;0.77;100.00;101481.88;5021188;28;20037;-57
2023/03/15 06:33:05;;;;;;;19.37;12.27;;;;;;;0.77;100.00;101475.81;5015299;28;20050;-59
2023/03/15 06:35:30;;;;;;;19.00;12.80;;;;;;;0.76;100.00;101485.44;5017235;28;20030;-59
2023/03/15 06:37:55;;;;;;;20.80;12.87;;;;;;;0.78;100.00;101487.94;5022019;28;20070;-57
2023/03/15 06:40:21;;;;;;;20.20;12.77;;;;;;;0.80;100.00;101491.31;5019432;28;20033;-57
2023/03/15 06:42:46;;;;;;;20.10;13.00;;;;;;;0.82;100.00;101497.28;5021518;28;20033;-59
2023/03/15 06:45:12;;;;;;;21.17;13.43;;;;;;;0.83;100.00;101493.75;5015374;28;20564;-59
2023/03/15 06:47:37;;;;;;;20.77;13.67;;;;;;;0.87;100.00;101510.97;5021432;28;20033;-57
2023/03/15 06:50:04;;;;;;;21.20;13.70;;;;;;;0.90;100.00;101512.56;5036600;28;20085;-58
2023/03/15 06:52:29;;;;;;;22.70;13.63;;;;;;;0.94;100.00;101508.88;5024781;28;20033;-58
2023/03/15 06:54:54;;;;;;;21.67;14.33;;;;;;;0.94;100.00;101514.91;5022006;28;20098;-57
2023/03/15 06:57:20;;;;;;;21.43;14.10;;;;;;;1.00;100.00;101529.44;5020327;28;20044;-57
2023/03/15 06:59:45;;;;;;;23.63;13.80;;;;;;;1.03;100.00;101525.81;5020791;28;20049;-57
2023/03/15 07:02:16;;;;;;;22.90;14.97;;;;;;;1.04;100.00;101530.13;5018912;28;20037;-57
2023/03/15 07:04:43;;;;;;;22.80;13.57;;;;;;;1.06;100.00;101528.25;5032804;28;20557;-61
2023/03/15 07:07:09;;;;;;;23.33;13.73;;;;;;;1.10;100.00;101542.84;5017571;28;20084;-57
2023/03/15 07:09:35;;;;;;;22.40;14.53;;;;;;;1.09;100.00;101542.94;5023383;28;20470;-58
2023/03/15 07:12:00;;;;;;;23.83;14.30;;;;;;;1.10;100.00;101545.47;5026532;28;20065;-57
2023/03/15 07:14:25;;;;;;;24.80;14.57;;;;;;;1.11;100.00;101549.75;5019864;28;20500;-57
2023/03/15 07:16:51;;;;;;;25.10;14.27;;;;;;;1.15;100.00;101553.91;5029836;28;20033;-57
2023/03/15 07:19:16;;;;;;;23.60;14.60;;;;;;;1.22;100.00;101553.56;5027906;28;20029;-58
2023/03/15 07:21:41;;;;;;;25.73;14.90;;;;;;;1.30;100.00;101561.81;5028552;28;20033;-57
2023/03/15 07:24:07;;;;;;;23.03;14.23;;;;;;;1.36;100.00;101565.88;5031073;28;20029;-58
2023/03/15 07:26:32;;;;;;;24.33;15.00;;;;;;;1.40;100.00;101565.63;5032231;28;20485;-57
2023/03/15 07:28:57;;;;;;;22.07;14.70;;;;;;;1.46;100.00;101573.16;5030951;28;20041;-57
2023/03/15 07:31:23;;;;;;;22.77;14.50;;;;;;;1.51;100.00;101585.09;5028454;28;20034;-60
2023/03/15 07:33:48;;;;;;;22.97;14.37;;;;;;;1.50;100.00;101578.19;5030337;28;20029;-57
2023/03/15 07:36:13;;;;;;;21.87;13.73;;;;;;;1.53;100.00;101585.88;5029226;28;20029;-57
2023/03/15 07:38:39;;;;;;;22.37;14.13;;;;;;;1.57;100.00;101584.75;5028379;28;20392;-57
2023/03/15 07:41:05;;;;;;;20.13;13.23;;;;;;;1.61;100.00;101595.00;5019096;28;20462;-58
2023/03/15 07:43:31;;;;;;;21.00;13.80;;;;;;;1.66;100.00;101589.50;5020385;28;20036;-60
2023/03/15 07:45:56;;;;;;;21.37;13.10;;;;;;;1.71;100.00;101587.47;5021057;28;20485;-58
2023/03/15 07:48:22;;;;;;;20.03;12.17;;;;;;;1.79;100.00;101599.28;5020044;28;20049;-58
2023/03/15 07:50:47;;;;;;;20.90;12.87;;;;;;;1.86;100.00;101605.84;5019641;28;20040;-57
2023/03/15 07:53:13;;;;;;;20.23;12.47;;;;;;;1.93;100.00;101608.97;5024196;28;20091;-58
2023/03/15 07:55:38;;;;;;;17.70;11.33;;;;;;;2.01;100.00;101610.22;5023718;28;20053;-58
2023/03/15 07:58:04;;;;;;;16.73;10.90;;;;;;;2.05;100.00;101615.28;5025631;28;20424;-60
2023/03/15 08:00:30;;;;;;;18.37;10.40;;;;;;;2.07;100.00;101618.66;5018315;28;20059;-59
2023/03/15 08:02:55;;;;;;;17.73;10.30;;;;;;;2.15;100.00;101626.91;5023887;28;20112;-58
2023/03/15 08:05:21;;;;;;;18.40;9.87;;;;;;;2.14;100.00;101630.47;5022086;28;20057;-58
2023/03/15 08:07:47;;;;;;;19.47;10.73;;;;;;;2.26;100.00;101629.78;5018117;28;20035;-58
2023/03/15 08:10:14;;;;;;;17.77;10.27;;;;;;;2.31;100.00;101644.38;5021236;28;20114;-58
2023/03/15 08:12:41;;;;;;;18.47;9.80;;;;;;;2.36;100.00;101644.97;5016792;28;20164;-58
2023/03/15 08:15:16;;;;;;;18.10;8.83;;;;;;;2.47;100.00;101657.44;5021964;28;20084;-61
2023/03/15 08:17:42;;;;;;;17.20;8.97;;;;;;;2.47;100.00;101663.50;5022181;28;20442;-58
2023/03/15 08:20:10;;;;;;;13.10;8.90;;;;;;;2.54;100.00;101669.25;5021308;28;20059;-58
2023/03/15 08:22:38;;;;;;;17.37;8.50;;;;;;;2.60;100.00;101668.03;5017868;28;20847;-58
2023/03/15 08:25:05;;;;;;;14.80;8.27;;;;;;;2.69;100.00;101672.75;5018744;28;20590;-59
2023/03/15 08:27:30;;;;;;;16.13;8.87;;;;;;;2.73;100.00;101673.41;5017801;28;20041;-60
2023/03/15 08:29:55;;;;;;;16.50;8.87;;;;;;;2.77;100.00;101670.50;5025349;28;20109;-59
2023/03/15 08:32:21;;;;;;;16.27;8.53;;;;;;;2.84;100.00;101681.47;5021252;28;20128;-59
2023/03/15 08:34:47;;;;;;;16.90;8.63;;;;;;;2.91;100.00;101692.47;5021496;28;20560;-58
2023/03/15 08:37:12;;;;;;;17.30;8.53;;;;;;;2.99;100.00;101687.59;5029464;28;20477;-58
2023/03/15 08:39:38;;;;;;;14.00;8.07;;;;;;;2.94;100.00;101682.63;5027763;28;20065;-58
2023/03/15 08:42:04;;;;;;;14.53;7.63;;;;;;;2.88;100.00;101693.47;5032489;28;20045;-58
2023/03/15 08:44:30;;;;;;;13.03;8.10;;;;;;;2.98;100.00;101693.78;5027963;28;20101;-58
2023/03/15 08:46:55;;;;;;;14.93;7.90;;;;;;;2.97;100.00;101692.09;5030733;28;20029;-57
2023/03/15 08:49:21;;;;;;;12.73;6.67;;;;;;;3.12;100.00;101692.97;5026723;28;20387;-58
2023/03/15 08:51:46;;;;;;;12.97;5.93;;;;;;;3.13;100.00;101704.28;5028324;28;20112;-59
2023/03/15 08:54:13;;;;;;;12.43;5.87;;;;;;;3.09;100.00;101701.84;5024371;28;20084;-58
2023/03/15 08:56:38;;;;;;;13.57;6.00;;;;;;;3.12;100.00;101705.22;5023221;28;20040;-58
2023/03/15 08:59:04;;;;;;;11.27;5.70;;;;;;;3.22;100.00;101696.69;5031564;28;20029;-57
2023/03/15 09:01:29;;;;;;;12.33;5.27;;;;;;;3.21;100.00;101699.44;5034507;28;20033;-58
2023/03/15 09:03:55;;;;;;;12.43;5.40;;;;;;;3.26;99.46;101702.59;5014650;28;20077;-58
2023/03/15 09:06:20;;;;;;;10.07;5.43;;;;;;;3.34;100.00;101710.88;5016373;28;20148;-61
2023/03/15 09:08:45;;;;;;;9.87;5.60;;;;;;;3.38;99.35;101710.66;5016678;28;20061;-57
2023/03/15 09:11:11;;;;;;;12.57;5.70;;;;;;;3.46;99.30;101713.69;5021435;28;20033;-58
2023/03/15 09:13:36;;;;;;;13.07;5.25;;;;;;;3.46;97.16;101711.88;5023668;28;20033;-57
2023/03/15 09:16:02;;;;;;;10.83;4.73;;;;;;;3.52;96.11;101712.47;5018726;28;20351;-57
2023/03/15 09:18:27;;;;;;;11.52;4.03;;;;;;;3.67;96.04;101715.91;5023050;28;20056;-57
2023/03/15 09:20:53;;;;;;;9.93;3.75;;;;;;;3.76;94.50;101715.38;5020297;28;20103;-57
2023/03/15 09:23:18;;;;;;;13.38;4.10;;;;;;;3.74;94.30;101717.22;5022306;28;20040;-58
2023/03/15 09:25:43;;;;;;;11.52;4.10;;;;;;;3.83;93.49;101711.41;5021333;28;20057;-57
2023/03/15 09:28:10;;;;;;;8.77;3.90;;;;;;;3.79;92.41;101709.91;5024139;28;20505;-58
2023/03/15 09:30:38;;;;;;;11.32;3.80;;;;;;;3.83;92.83;101711.41;5016563;28;20445;-57
2023/03/15 09:33:04;;;;;;;16.90;3.90;;;;;;;3.88;91.24;101717.22;5028123;28;20052;-57
2023/03/15 09:35:29;;;;;;;10.60;3.38;;;;;;;3.85;91.34;101717.41;5027226;28;20037;-58
2023/03/15 09:37:55;;;;;;;13.30;3.40;;;;;;;3.80;89.85;101722.09;5028042;28;20030;-58
2023/03/15 09:40:26;;;;;;;7.40;3.20;;;;;;;3.81;90.27;101718.56;5021504;28;20037;-58
2023/03/15 09:43:01;;;;;;;9.50;3.80;;;;;;;3.94;91.80;101715.16;5019581;28;20116;-57
2023/03/15 09:45:41;;;;;;;11.45;4.20;;;;;;;4.01;90.22;101719.06;5023607;28;20057;-58
2023/03/15 09:48:20;;;;;;;10.25;4.80;;;;;;;4.07;91.07;101713.44;5018928;28;20476;-58
2023/03/15 09:50:53;;;;;;;12.68;4.07;;;;;;;3.99;89.54;101726.22;5014023;28;20393;-57
2023/03/15 09:53:38;;;;;;;11.93;4.13;;;;;;;4.00;88.49;101722.66;5023194;28;20420;-58
2023/03/15 09:56:21;;;;;;;12.07;3.53;;;;;;;3.95;86.69;101729.97;5017036;28;20030;-58
2023/03/15 09:58:50;;;;;;;11.90;3.45;;;;;;;3.85;85.11;101735.78;5023534;28;20069;-58
2023/03/15 10:01:16;;;;;;;11.30;3.30;;;;;;;3.77;87.18;101738.03;5016417;28;20620;-58
2023/03/15 10:03:52;;;;;;;13.32;3.90;;;;;;;3.77;87.46;101732.78;5028595;28;20112;-57
2023/03/15 10:06:19;;;;;;;12.30;3.65;;;;;;;3.86;88.27;101732.19;5024131;28;20108;-58
2023/03/15 10:08:46;;;;;;;9.00;3.70;;;;;;;4.01;85.33;101729.56;5023933;28;20029;-57
2023/03/15 10:11:19;;;;;;;12.05;3.30;;;;;;;4.16;87.67;101733.84;5022618;28;20026;-57
2023/03/15 10:13:54;;;;;;;9.93;3.30;;;;;;;4.34;86.57;101724.91;5018983;28;20076;-58
2023/03/15 10:16:47;;;;;;;9.32;3.22;;;;;;;4.51;86.26;101726.44;5022203;28;20061;-60
2023/03/15 10:19:22;;;;;;;13.35;3.30;;;;;;;4.65;85.01;101723.78;5022961;28;20033;-57
2023/03/15 10:21:58;;;;;;;12.23;2.63;;;;;;;4.80;83.06;101731.56;5029143;28;20049;-58
2023/03/15 10:25:03;;;;;;;7.78;2.83;;;;;;;4.88;82.03;101723.19;5026588;28;20076;-57
2023/03/15 10:27:53;;;;;;;9.77;2.95;;;;;;;4.86;76.55;101715.41;5029756;28;20025;-58
2023/03/15 10:30:29;;;;;;;9.25;2.50;;;;;;;4.81;77.46;101722.75;5024962;28;20464;-57
2023/03/15 10:33:32;;;;;;;8.43;3.00;;;;;;;4.90;81.15;101724.78;5026673;28;20041;-57
2023/03/15 10:35:59;;;;;;;8.20;2.78;;;;;;;4.97;80.60;101723.41;5022677;28;20558;-58
2023/03/15 10:38:25;;;;;;;9.65;2.80;;;;;;;5.05;78.15;101729.94;5013862;28;20374;-57
2023/03/15 10:40:57;;;;;;;10.95;2.58;;;;;;;5.12;76.61;101728.56;5026278;28;20231;-57
2023/03/15 10:43:22;;;;;;;6.97;2.75;;;;;;;5.32;77.14;101736.91;5026484;28;20108;-57
2023/03/15 10:46:04;;;;;;;10.43;2.75;;;;;;;5.47;76.20;101735.84;5027150;28;20117;-58
2023/03/15 10:48:33;;;;;;;12.27;2.90;;;;;;;5.48;74.47;101740.16;5026678;28;20041;-57
2023/03/15 10:51:13;;;;;;;9.45;2.47;;;;;;;5.35;71.78;101732.28;5023431;28;20480;-58
2023/03/15 10:54:07;;;;;;;10.93;2.50;;;;;;;5.25;73.66;101753.09;5020319;28;20109;-58
2023/03/15 10:56:44;;;;;;;9.02;2.20;;;;;;;5.27;73.58;101757.41;5017409;28;20049;-58
2023/03/15 10:59:24;;;;;;;12.40;2.78;;;;;;;5.31;70.81;101756.25;5022130;28;20030;-59
2023/03/15 11:01:52;;;;;;;9.25;2.47;;;;;;;5.30;71.54;101754.56;5024891;28;20144;-57
2023/03/15 11:04:20;;;;;;;7.43;2.30;;;;;;;5.42;69.14;101764.25;5012477;28;20026;-57
2023/03/15 11:06:58;;;;;;;5.07;2.10;;;;;;;5.52;64.48;101765.31;5018916;28;20493;-58
2023/03/15 11:09:25;;;;;;;5.70;1.90;;;;;;;5.56;64.77;101767.72;5023254;28;20037;-58
2023/03/15 11:12:06;;;;;;;8.55;2.10;;;;;;;5.66;65.99;101760.88;5020901;28;20026;-57
2023/03/15 11:14:40;;;;;;;8.43;2.38;;;;;;;5.78;67.30;101770.56;5019303;28;20065;-57
2023/03/15 11:17:14;;;;;;;9.20;2.30;;;;;;;5.97;67.55;101769.25;5014077;28;20045;-58
2023/03/15 11:19:45;;;;;;;7.93;2.45;;;;;;;5.99;69.79;101767.38;5028265;28;20117;-58